MTM weather

Metlakatla Seaplane Base
Metlakatla, Alaska, United States

Public forecast

Using degrees Fahrenheit for public forecast. Weather courtesy of forecast.io.

METAR (pilot weather report)

Retrieved 2019/07/21 21:56 UTC (48 minutes ago):

PAMM 212156Z AUTO 24006KT 10SM CLR 19/13 A3002 RMK AO2 SLP156 T01890128 $

TAF (pilot weather forecast)

Closest forecast is Ketchikan International Airport, 14.3 nm (26.4 km) NNW. Retrieved 2019/07/21 18:36 UTC (4 hours ago):

TAF PAKT 211733Z 2118/2218 33012KT P6SM FEW030 BKN180 FM220300 14006KT P6SM BKN110 FM221300 34007KT P6SM BKN090 AMD LTD TO CLD VIS AND WIND 2206/2215